createdAt,value
2022-10-24T00:01:31.542Z,7.10
2022-10-24T00:03:59.411Z,8.05
2022-10-24T00:06:27.106Z,6.82
2022-10-24T00:08:54.978Z,7.57
2022-10-24T00:11:27.677Z,8.00
2022-10-24T00:13:57.669Z,7.43
2022-10-24T00:16:27.644Z,7.28
2022-10-24T00:18:55.467Z,8.38
2022-10-24T00:21:23.319Z,7.35
2022-10-24T00:23:51.202Z,7.57
2022-10-24T00:26:18.995Z,8.10
2022-10-24T00:28:46.837Z,7.20
2022-10-24T00:31:17.910Z,7.03
2022-10-24T00:33:46.158Z,7.60
2022-10-24T00:36:18.113Z,8.10
2022-10-24T00:38:46.178Z,7.97
2022-10-24T00:41:21.229Z,8.05
2022-10-24T00:43:49.440Z,11.93
2022-10-24T00:46:19.985Z,14.05
2022-10-24T00:48:52.208Z,14.95
2022-10-24T00:51:28.880Z,12.05
2022-10-24T00:54:15.933Z,12.77
2022-10-24T00:57:27.826Z,12.38
2022-10-24T01:00:02.025Z,9.68
2022-10-24T01:02:30.198Z,9.77
2022-10-24T01:04:58.068Z,9.60
2022-10-24T01:07:58.365Z,9.05
2022-10-24T01:10:57.158Z,9.40
2022-10-24T01:13:59.909Z,9.27
2022-10-24T01:17:09.699Z,8.43
2022-10-24T01:19:50.479Z,9.32
2022-10-24T01:22:22.599Z,9.13
2022-10-24T01:25:22.595Z,9.43
2022-10-24T01:28:15.508Z,9.07
2022-10-24T01:31:04.323Z,9.80
2022-10-24T01:33:49.433Z,9.85
2022-10-24T01:36:27.914Z,9.00
2022-10-24T01:39:02.540Z,9.95
2022-10-24T01:41:33.234Z,10.07
2022-10-24T01:44:18.827Z,10.73
2022-10-24T01:47:17.517Z,11.50
2022-10-24T01:50:11.794Z,11.45
2022-10-24T01:52:44.227Z,11.57
2022-10-24T01:55:13.157Z,13.55
2022-10-24T01:57:40.755Z,12.00
2022-10-24T02:00:15.564Z,12.18
2022-10-24T02:03:29.186Z,12.63
2022-10-24T02:06:08.270Z,12.40
2022-10-24T02:08:45.656Z,12.90
2022-10-24T02:11:13.940Z,11.57
2022-10-24T02:14:02.920Z,9.27
2022-10-24T02:19:00.494Z,6.22
2022-10-24T02:21:43.949Z,6.82
2022-10-24T02:24:20.514Z,7.15
2022-10-24T02:27:08.226Z,7.57
2022-10-24T02:30:04.932Z,6.30
2022-10-24T02:32:40.044Z,6.18
2022-10-24T02:35:11.112Z,6.18
2022-10-24T02:37:49.200Z,6.38
2022-10-24T02:40:20.390Z,7.35
2022-10-24T02:42:52.790Z,7.68
2022-10-24T02:45:22.472Z,7.72
2022-10-24T02:47:58.428Z,6.68
2022-10-24T02:50:26.770Z,6.28
2022-10-24T02:52:54.537Z,6.45
2022-10-24T02:55:22.466Z,6.40
2022-10-24T02:57:50.248Z,6.43
2022-10-24T03:00:18.809Z,7.05
2022-10-24T03:02:47.082Z,6.70
2022-10-24T03:05:14.809Z,7.78
2022-10-24T03:07:42.630Z,7.30
2022-10-24T03:10:10.284Z,9.93
2022-10-24T03:12:38.071Z,31.55
2022-10-24T03:15:06.794Z,69.35
2022-10-24T03:17:34.590Z,70.07
2022-10-24T03:20:02.480Z,68.63
2022-10-24T03:22:30.673Z,48.97
2022-10-24T03:25:02.097Z,45.95
2022-10-24T03:27:30.785Z,40.60
2022-10-24T03:29:58.370Z,44.58
2022-10-24T03:34:59.299Z,79.28
2022-10-24T03:37:28.820Z,84.72
2022-10-24T03:39:56.823Z,90.47
2022-10-24T03:42:24.592Z,87.13
2022-10-24T03:44:52.150Z,90.15
2022-10-24T03:47:20.106Z,81.43
2022-10-24T03:49:47.634Z,90.80
2022-10-24T03:52:15.520Z,83.57
2022-10-24T03:54:43.305Z,83.72
2022-10-24T03:57:11.590Z,85.68
2022-10-24T03:59:39.193Z,76.00
2022-10-24T04:02:07.561Z,50.67
2022-10-24T04:04:35.328Z,32.38
2022-10-24T04:07:05.870Z,36.25
2022-10-24T04:09:33.527Z,41.75
2022-10-24T04:12:01.247Z,40.08
2022-10-24T04:14:28.761Z,40.15
2022-10-24T04:16:56.697Z,40.50
2022-10-24T04:19:24.276Z,36.42
2022-10-24T04:21:52.288Z,38.75
2022-10-24T04:24:19.873Z,37.67
2022-10-24T04:26:48.016Z,38.28
2022-10-24T04:29:15.563Z,36.33
2022-10-24T04:31:43.581Z,31.20
2022-10-24T04:34:11.163Z,30.15
2022-10-24T04:36:38.904Z,29.73
2022-10-24T04:39:08.974Z,28.02
2022-10-24T04:41:36.775Z,24.42
2022-10-24T04:44:04.411Z,21.85
2022-10-24T04:46:32.406Z,21.90
2022-10-24T04:48:59.960Z,30.73
2022-10-24T04:51:28.519Z,27.45
2022-10-24T04:53:56.436Z,22.65
2022-10-24T04:56:26.011Z,24.80
2022-10-24T04:58:53.686Z,22.48
2022-10-24T05:01:21.461Z,22.02
2022-10-24T05:03:49.162Z,23.58
2022-10-24T05:06:17.106Z,22.90
2022-10-24T05:08:44.817Z,22.85
2022-10-24T05:11:12.733Z,24.15
2022-10-24T05:13:41.296Z,23.85
2022-10-24T05:16:09.680Z,24.50
2022-10-24T05:18:38.418Z,23.50
2022-10-24T05:21:06.400Z,23.00
2022-10-24T05:23:33.943Z,23.85
2022-10-24T05:26:01.740Z,24.55
2022-10-24T05:28:29.888Z,25.80
2022-10-24T05:30:57.952Z,24.60
2022-10-24T05:33:25.653Z,24.60
2022-10-24T05:35:53.932Z,25.45
2022-10-24T05:38:22.835Z,23.55
2022-10-24T05:40:51.506Z,23.42
2022-10-24T05:43:19.596Z,25.27
2022-10-24T05:48:17.214Z,23.50
2022-10-24T05:50:45.618Z,27.05
2022-10-24T05:53:13.183Z,23.23
2022-10-24T05:55:40.937Z,21.77
2022-10-24T05:58:08.561Z,22.58
2022-10-24T06:00:36.367Z,22.45
2022-10-24T06:03:03.927Z,23.45
2022-10-24T06:05:31.751Z,23.15
2022-10-24T06:08:00.173Z,24.23
2022-10-24T06:10:28.050Z,24.77
2022-10-24T06:12:55.638Z,23.95
2022-10-24T06:15:23.597Z,23.52
2022-10-24T06:17:51.551Z,22.80
2022-10-24T06:20:19.625Z,24.00
2022-10-24T06:22:49.590Z,25.10
2022-10-24T06:25:17.625Z,26.30
2022-10-24T06:27:45.560Z,24.23
2022-10-24T06:30:13.344Z,20.95
2022-10-24T06:32:44.567Z,20.08
2022-10-24T06:35:15.961Z,22.15
2022-10-24T06:37:48.234Z,21.80
2022-10-24T06:40:18.676Z,21.02
2022-10-24T06:42:46.518Z,23.23
2022-10-24T06:45:14.371Z,21.90
2022-10-24T06:47:41.934Z,22.85
2022-10-24T06:50:10.158Z,21.10
2022-10-24T06:52:38.038Z,21.50
2022-10-24T06:55:24.777Z,20.63
2022-10-24T06:57:53.943Z,21.10
2022-10-24T07:00:21.995Z,20.88
2022-10-24T07:02:49.523Z,21.05
2022-10-24T07:05:17.545Z,21.67
2022-10-24T07:07:45.404Z,20.45
2022-10-24T07:10:15.207Z,18.83
2022-10-24T07:15:12.598Z,17.85
2022-10-24T07:17:42.737Z,19.02
2022-10-24T07:20:12.765Z,17.95
2022-10-24T07:22:40.853Z,19.38
2022-10-24T07:25:09.387Z,19.33
2022-10-24T07:27:36.991Z,17.08
2022-10-24T07:30:07.211Z,18.38
2022-10-24T07:32:35.551Z,18.10
2022-10-24T07:35:03.609Z,17.40
2022-10-24T07:37:31.052Z,19.23
2022-10-24T07:39:58.721Z,16.70
2022-10-24T07:42:26.425Z,16.95
2022-10-24T07:44:54.178Z,17.20
2022-10-24T07:47:21.649Z,17.52
2022-10-24T07:49:49.472Z,18.08
2022-10-24T07:52:16.879Z,21.13
2022-10-24T07:54:44.768Z,19.83
2022-10-24T07:57:12.227Z,19.67
2022-10-24T07:59:42.543Z,21.17
2022-10-24T08:02:15.121Z,21.60
2022-10-24T08:04:43.267Z,20.50
2022-10-24T08:07:17.560Z,18.77
2022-10-24T08:09:48.275Z,21.80
2022-10-24T08:12:15.741Z,21.48
2022-10-24T08:14:43.859Z,22.25
2022-10-24T08:17:11.522Z,20.95
2022-10-24T08:19:43.828Z,20.70
2022-10-24T08:22:12.165Z,19.20
2022-10-24T08:24:39.953Z,17.85
2022-10-24T08:27:07.384Z,18.83
2022-10-24T08:29:36.348Z,16.73
2022-10-24T08:32:04.258Z,17.25
2022-10-24T08:34:31.957Z,15.43
2022-10-24T08:36:59.853Z,17.15
2022-10-24T08:39:27.571Z,16.77
2022-10-24T08:42:05.363Z,16.77
2022-10-24T08:44:47.259Z,15.32
2022-10-24T08:47:44.756Z,16.25
2022-10-24T08:50:33.645Z,15.75
2022-10-24T08:53:11.013Z,16.02
2022-10-24T08:55:50.810Z,15.88
2022-10-24T08:58:28.923Z,14.77
2022-10-24T09:01:01.656Z,15.93
2022-10-24T09:03:57.451Z,14.80
2022-10-24T09:06:32.397Z,15.45
2022-10-24T09:09:27.071Z,14.90
2022-10-24T09:12:13.546Z,12.50
2022-10-24T09:14:47.355Z,14.38
2022-10-24T09:17:45.262Z,14.88
2022-10-24T09:20:33.491Z,14.70
2022-10-24T09:23:05.071Z,14.80
2022-10-24T09:25:38.464Z,16.45
2022-10-24T09:28:06.686Z,12.90
2022-10-24T09:30:36.731Z,14.73
2022-10-24T09:33:34.464Z,14.35
2022-10-24T09:36:04.797Z,12.80
2022-10-24T09:38:39.417Z,13.70
2022-10-24T09:41:39.564Z,14.25
2022-10-24T09:44:39.369Z,12.45
2022-10-24T09:47:24.748Z,13.65
2022-10-24T09:49:53.640Z,13.77
2022-10-24T09:52:29.370Z,12.88
2022-10-24T09:55:22.456Z,12.48
2022-10-24T09:57:55.116Z,12.63
2022-10-24T10:00:36.362Z,11.95
2022-10-24T10:03:23.936Z,12.38
2022-10-24T10:05:59.368Z,11.02
2022-10-24T10:08:36.727Z,11.43
2022-10-24T10:11:13.092Z,11.05
2022-10-24T10:13:53.790Z,12.15
2022-10-24T10:16:33.944Z,11.40
2022-10-24T10:19:13.487Z,11.00
2022-10-24T10:22:06.623Z,11.85
2022-10-24T10:24:44.193Z,11.27
2022-10-24T10:27:51.171Z,11.02
2022-10-24T10:30:21.440Z,13.68
2022-10-24T10:33:22.201Z,12.13
2022-10-24T10:36:15.993Z,12.27
2022-10-24T10:39:13.515Z,11.10
2022-10-24T10:42:14.767Z,10.68
2022-10-24T10:45:19.321Z,12.18
2022-10-24T10:48:05.418Z,9.73
2022-10-24T10:50:53.180Z,11.27
2022-10-24T10:53:47.095Z,11.45
2022-10-24T10:56:45.668Z,10.65
2022-10-24T10:59:46.642Z,12.23
2022-10-24T11:02:58.638Z,11.38
2022-10-24T11:06:05.946Z,10.88
2022-10-24T11:09:07.565Z,11.43
2022-10-24T11:11:52.050Z,9.25
2022-10-24T11:14:48.479Z,11.60
2022-10-24T11:17:30.059Z,10.18
2022-10-24T11:20:19.820Z,11.00
2022-10-24T11:23:04.048Z,10.88
2022-10-24T11:25:40.019Z,10.52
2022-10-24T11:28:37.751Z,9.50
2022-10-24T11:31:15.513Z,9.17
2022-10-24T11:33:53.411Z,10.02
2022-10-24T11:36:40.067Z,9.60
2022-10-24T11:39:29.313Z,9.13
2022-10-24T11:42:15.243Z,8.52
2022-10-24T11:45:10.743Z,7.78
2022-10-24T11:47:46.523Z,8.63
2022-10-24T11:50:30.910Z,9.20
2022-10-24T11:53:31.269Z,9.30
2022-10-24T11:56:02.431Z,9.05
2022-10-24T11:58:33.545Z,8.88
2022-10-24T12:01:27.861Z,9.35
2022-10-24T12:04:21.258Z,10.02
2022-10-24T12:07:35.228Z,8.55
2022-10-24T12:10:43.496Z,8.52
2022-10-24T12:14:00.734Z,9.13
2022-10-24T12:16:57.309Z,7.95
2022-10-24T12:19:28.026Z,8.10
2022-10-24T12:22:01.605Z,8.05
2022-10-24T12:24:36.462Z,8.18
2022-10-24T12:27:25.758Z,6.72
2022-10-24T12:32:52.441Z,8.00
2022-10-24T12:35:44.549Z,8.32
2022-10-24T12:38:27.620Z,7.72
2022-10-24T12:41:33.421Z,7.15
2022-10-24T12:44:34.853Z,8.90
2022-10-24T12:47:41.863Z,7.25
2022-10-24T12:50:21.704Z,8.20
2022-10-24T12:52:56.654Z,8.50
2022-10-24T12:55:39.128Z,9.63
2022-10-24T12:58:36.542Z,7.55
2022-10-24T13:01:11.159Z,14.95
2022-10-24T13:04:24.127Z,7.55
2022-10-24T13:07:31.587Z,8.65
2022-10-24T13:10:45.130Z,8.90
2022-10-24T13:13:39.167Z,8.10
2022-10-24T13:16:16.006Z,8.13
2022-10-24T13:19:06.581Z,8.63
2022-10-24T13:21:51.643Z,7.90
2022-10-24T13:24:22.554Z,8.45
2022-10-24T13:26:56.774Z,7.85
2022-10-24T13:29:24.469Z,8.70
2022-10-24T13:31:55.217Z,9.13
2022-10-24T13:34:47.927Z,8.13
2022-10-24T13:37:30.592Z,9.27
2022-10-24T13:40:19.231Z,7.80
2022-10-24T13:42:56.754Z,8.05
2022-10-24T13:45:49.727Z,8.23
2022-10-24T13:48:28.237Z,9.55
2022-10-24T13:51:24.510Z,9.38
2022-10-24T13:54:02.908Z,8.18
2022-10-24T13:59:03.396Z,7.35
2022-10-24T14:01:31.642Z,8.02
2022-10-24T14:04:02.251Z,8.18
2022-10-24T14:06:33.507Z,8.23
2022-10-24T14:09:09.320Z,8.60
2022-10-24T14:11:46.959Z,8.90
2022-10-24T14:14:37.683Z,10.07
2022-10-24T14:17:36.049Z,9.90
2022-10-24T14:20:09.828Z,8.50
2022-10-24T14:22:40.754Z,8.15
2022-10-24T14:25:38.082Z,10.35
2022-10-24T14:28:20.364Z,10.63
2022-10-24T14:31:03.060Z,10.18
2022-10-24T14:33:48.171Z,11.15
2022-10-24T14:36:21.774Z,13.27
2022-10-24T14:38:57.572Z,14.30
2022-10-24T14:41:33.846Z,12.05
2022-10-24T14:44:02.408Z,10.75
2022-10-24T14:46:41.935Z,10.10
2022-10-24T14:49:38.204Z,11.23
2022-10-24T14:52:18.465Z,10.82
2022-10-24T14:55:03.249Z,10.02
2022-10-24T14:57:34.080Z,9.52
2022-10-24T15:00:09.027Z,9.43
2022-10-24T15:02:43.196Z,10.38
2022-10-24T15:05:20.445Z,10.55
2022-10-24T15:08:25.025Z,10.45
2022-10-24T15:10:48.725Z,9.38
2022-10-24T15:13:25.441Z,9.18
2022-10-24T15:15:59.778Z,10.50
2022-10-24T15:18:41.347Z,10.88
2022-10-24T15:21:20.244Z,10.63
2022-10-24T15:23:56.128Z,10.30
2022-10-24T15:26:36.331Z,10.73
2022-10-24T15:29:17.199Z,9.70
2022-10-24T15:31:48.644Z,12.27
2022-10-24T15:34:23.713Z,15.20
2022-10-24T15:36:53.317Z,15.63
2022-10-24T15:39:27.041Z,13.82
2022-10-24T15:41:55.346Z,15.60
2022-10-24T15:44:28.803Z,16.97
2022-10-24T15:46:56.851Z,12.05
2022-10-24T15:49:24.512Z,13.75
2022-10-24T15:51:52.584Z,11.70
2022-10-24T15:54:22.697Z,12.65
2022-10-24T15:56:52.215Z,12.35
2022-10-24T15:59:20.699Z,13.63
2022-10-24T16:04:21.988Z,11.52
2022-10-24T16:06:51.295Z,12.93
2022-10-24T16:09:27.558Z,16.10
2022-10-24T16:11:55.858Z,12.82
2022-10-24T16:14:27.345Z,10.10
2022-10-24T16:16:55.485Z,8.85
2022-10-24T16:19:26.833Z,8.23
2022-10-24T16:21:59.643Z,8.43
2022-10-24T16:24:28.239Z,8.30
2022-10-24T16:26:56.886Z,9.98
2022-10-24T16:29:24.439Z,8.80
2022-10-24T16:31:52.261Z,8.88
2022-10-24T16:34:20.147Z,8.98
2022-10-24T16:36:48.074Z,8.97
2022-10-24T16:39:16.417Z,8.35
2022-10-24T16:41:46.410Z,7.47
2022-10-24T16:44:14.669Z,7.65
2022-10-24T16:46:42.537Z,8.18
2022-10-24T16:49:10.196Z,7.85
2022-10-24T16:51:41.825Z,9.93
2022-10-24T16:54:10.937Z,8.85
2022-10-24T16:56:38.829Z,9.32
2022-10-24T16:59:06.651Z,8.98
2022-10-24T17:01:35.795Z,8.23
2022-10-24T17:04:03.513Z,9.93
2022-10-24T17:06:31.301Z,9.90
2022-10-24T17:08:58.936Z,10.10
2022-10-24T17:11:44.328Z,8.43
2022-10-24T17:14:14.452Z,10.18
2022-10-24T17:16:44.025Z,8.73
2022-10-24T17:19:16.151Z,10.35
2022-10-24T17:21:51.242Z,9.25
2022-10-24T17:24:27.886Z,9.93
2022-10-24T17:26:56.676Z,9.30
2022-10-24T17:29:30.888Z,8.85
2022-10-24T17:31:59.890Z,11.00
2022-10-24T17:34:28.034Z,11.93
2022-10-24T17:37:52.476Z,10.80
2022-10-24T17:40:24.393Z,14.70
2022-10-24T17:42:52.614Z,11.25
2022-10-24T17:45:24.947Z,12.18
2022-10-24T17:47:52.851Z,12.18
2022-10-24T17:50:20.586Z,13.40
2022-10-24T17:52:51.321Z,10.93
2022-10-24T17:55:46.270Z,12.45
2022-10-24T17:58:15.457Z,12.07
2022-10-24T18:00:46.535Z,12.88
2022-10-24T18:03:15.675Z,14.20
2022-10-24T18:05:43.222Z,12.77
2022-10-24T18:08:13.742Z,13.07
2022-10-24T18:10:41.899Z,14.20
2022-10-24T18:13:10.621Z,15.20
2022-10-24T18:15:38.246Z,12.75
2022-10-24T18:18:06.615Z,12.50
2022-10-24T18:20:34.868Z,13.00
2022-10-24T18:23:03.207Z,11.40
2022-10-24T18:25:30.752Z,11.00
2022-10-24T18:27:58.558Z,11.55
2022-10-24T18:30:27.417Z,11.40
2022-10-24T18:32:55.249Z,10.60
2022-10-24T18:35:22.855Z,11.20
2022-10-24T18:40:24.081Z,11.98
2022-10-24T18:43:04.201Z,11.27
2022-10-24T18:45:32.779Z,13.30
2022-10-24T18:48:01.095Z,12.85
2022-10-24T18:50:29.411Z,11.13
2022-10-24T18:53:25.859Z,10.88
2022-10-24T18:55:53.748Z,10.13
2022-10-24T18:58:22.544Z,11.85
2022-10-24T19:00:56.750Z,16.80
2022-10-24T19:03:35.754Z,16.75
2022-10-24T19:06:25.830Z,16.98
2022-10-24T19:08:54.682Z,16.65
2022-10-24T19:11:24.695Z,16.58
2022-10-24T19:13:53.291Z,18.83
2022-10-24T19:16:27.505Z,16.92
2022-10-24T19:19:00.759Z,17.10
2022-10-24T19:21:28.889Z,16.63
2022-10-24T19:23:56.800Z,16.65
2022-10-24T19:26:24.734Z,15.27
2022-10-24T19:28:52.630Z,14.75
2022-10-24T19:31:20.248Z,16.25
2022-10-24T19:33:48.732Z,16.42
2022-10-24T19:36:19.040Z,14.95
2022-10-24T19:38:47.139Z,15.68
2022-10-24T19:41:15.039Z,16.20
2022-10-24T19:43:43.003Z,16.40
2022-10-24T19:46:25.983Z,16.10
2022-10-24T19:48:55.283Z,14.30
2022-10-24T19:51:24.120Z,14.40
2022-10-24T19:53:52.820Z,13.90
2022-10-24T19:56:26.862Z,13.10
2022-10-24T19:58:56.013Z,14.77
2022-10-24T20:01:27.304Z,14.77
2022-10-24T20:03:56.867Z,15.05
2022-10-24T20:06:27.545Z,14.95
2022-10-24T20:08:55.478Z,14.80
2022-10-24T20:11:23.881Z,15.23
2022-10-24T20:13:51.924Z,14.63
2022-10-24T20:16:20.055Z,15.13
2022-10-24T20:18:48.717Z,14.50
2022-10-24T20:21:18.942Z,13.93
2022-10-24T20:23:48.939Z,13.07
2022-10-24T20:26:24.857Z,13.40
2022-10-24T20:28:55.334Z,12.38
2022-10-24T20:31:30.205Z,13.55
2022-10-24T20:34:07.101Z,14.00
2022-10-24T20:36:42.909Z,14.57
2022-10-24T20:39:13.566Z,13.80
2022-10-24T20:41:42.255Z,14.30
2022-10-24T20:44:11.596Z,14.18
2022-10-24T20:46:40.670Z,13.32
2022-10-24T20:51:40.826Z,13.27
2022-10-24T20:54:11.129Z,16.73
2022-10-24T20:56:42.244Z,15.63
2022-10-24T20:59:13.559Z,15.73
2022-10-24T21:01:41.356Z,19.35
2022-10-24T21:04:10.101Z,19.27
2022-10-24T21:06:37.849Z,17.15
2022-10-24T21:09:07.183Z,16.83
2022-10-24T21:11:35.686Z,16.13
2022-10-24T21:14:07.600Z,15.05
2022-10-24T21:16:35.443Z,13.35
2022-10-24T21:19:04.422Z,12.65
2022-10-24T21:21:32.168Z,11.30
2022-10-24T21:24:04.415Z,12.63
2022-10-24T21:26:38.582Z,10.70
2022-10-24T21:29:27.917Z,10.80
2022-10-24T21:31:55.784Z,9.90
2022-10-24T21:34:23.943Z,9.35
2022-10-24T21:36:51.510Z,9.15
2022-10-24T21:39:19.251Z,9.93
2022-10-24T21:41:46.804Z,10.40
2022-10-24T21:44:15.058Z,9.82
2022-10-24T21:46:42.893Z,9.07
2022-10-24T21:49:11.563Z,9.32
2022-10-24T21:51:41.355Z,11.52
2022-10-24T21:54:18.911Z,13.05
2022-10-24T21:56:47.037Z,14.35
2022-10-24T21:59:18.198Z,14.73
2022-10-24T22:01:47.715Z,16.30
2022-10-24T22:04:16.663Z,15.43
2022-10-24T22:06:46.312Z,14.65
2022-10-24T22:12:16.208Z,13.13
2022-10-24T22:14:57.479Z,12.10
2022-10-24T22:17:40.176Z,10.90
2022-10-24T22:20:25.136Z,12.73
2022-10-24T22:23:07.506Z,13.98
2022-10-24T22:25:50.368Z,12.07
2022-10-24T22:28:28.492Z,13.63
2022-10-24T22:31:07.313Z,12.48
2022-10-24T22:33:48.709Z,11.23
2022-10-24T22:37:18.192Z,10.68
2022-10-24T22:39:55.802Z,10.07
2022-10-24T22:42:35.713Z,9.50
2022-10-24T22:45:16.183Z,9.97
2022-10-24T22:48:25.107Z,10.88
2022-10-24T22:51:32.726Z,10.07
2022-10-24T22:54:28.717Z,10.02
2022-10-24T22:57:00.980Z,10.18
2022-10-24T22:59:36.491Z,11.20
2022-10-24T23:06:22.244Z,10.32
2022-10-24T23:09:00.161Z,10.68
2022-10-24T23:12:17.908Z,8.90
2022-10-24T23:14:50.736Z,10.00
2022-10-24T23:19:53.030Z,8.82
2022-10-24T23:22:29.466Z,10.93
2022-10-24T23:25:00.280Z,10.48
2022-10-24T23:27:39.557Z,11.80
2022-10-24T23:30:18.447Z,12.00
2022-10-24T23:32:48.335Z,12.52
2022-10-24T23:35:19.704Z,12.80
2022-10-24T23:37:51.272Z,11.70
2022-10-24T23:40:34.102Z,11.13
2022-10-24T23:43:06.719Z,12.85
2022-10-24T23:46:06.922Z,10.82
2022-10-24T23:49:39.157Z,13.50
2022-10-24T23:52:26.078Z,16.60
2022-10-24T23:54:54.283Z,14.90
2022-10-24T23:57:22.240Z,19.35
2022-10-24T23:59:49.979Z,17.42
